Terminal Aerodrome Forecast
Issued by NWS Shreveport, LA

Home | Current Version | Previous Version | Text Only | Print | Product List | Glossary On
Versions: 1 2 3 4 5 6 7 8 9 10 11 12 13 14 15 16 17 18 19 20 21 22
000
FTUS44 KSHV 301740
TAFMLU
TAF
KMLU 301740Z 3018/3118 27008KT P6SM VCTS BKN030CB
      TEMPO 3018/3020 VRB15G30KT 1SM +TSRA BR
     FM302000 19005KT P6SM BKN100
     FM310600 VRB04KT P6SM OVC015
     FM311000 30006KT P6SM OVC009
     FM311700 32006KT P6SM SCT250=

USA.gov is the U.S. government's official web portal to all federal, state and local government web resources and services.